Buffalo, WY

12:19 PM MDT on October 02, 2014 (GMT -0600)
Esponda Ranch | Change Station
CLOSE
Current Station
Personal Weather Station
Location: Buffalo, WY
Elevation: 4665 ft
Nearby Weather Stations
Active Advisory: Special Statement

Elev 4665 ft 44.32 °N, 106.67 °W | Updated 5 minutes ago

Clear
Clear
55.3 °F
Feels Like 55.3 °F
N
0.0
Wind Variable Wind from SW
Gusts 5.0 mph

Today
High -- | Low -- °F
--% Chance of Precip.
Yesterday
High -- | Low -- °F
Precip. -- in
7:05 AM 6:45 PM
First Quarter, 61% visible
Pressure 30.00 in
Visibility 10.0 miles
Clouds Clear
Dew Point 36 °F
Humidity 49%
Rainfall 0.00 in
Snow Depth 0 in , 2 in , 0 in
UV 5 out of 12
Pollen 3.30 out of 12
Air Quality Not available.
Flu Activity Not available.
METAR KBYG 021753Z AUTO VRB04KT 10SM CLR 12/M01 A3003 RMK AO2 SLP159 T01171011 10117 20011 58001

More Conditions Fewer Conditions

Pressure 30.00 in
Visibility 10.0 miles
Clouds Clear
Dew Point 36 °F
Humidity 49%
Rainfall 0.00 in
Snow Depth 0 in , 2 in , 0 in
UV 5 out of 12
Pollen 3.30 out of 12
Air Quality Not available.
Flu Activity Not available.
METAR KBYG 021753Z AUTO VRB04KT 10SM CLR 12/M01 A3003 RMK AO2 SLP159 T01171011 10117 20011 58001

More Conditions Fewer Conditions

10-Day Weather Forecast

Almanac

Astronomy

Oct. 02, 2014 Rise Set
Actual Time 7:05 AM MDT 6:45 PM MDT
Civil Twilight 6:36 AM MDT 7:14 PM MDT
Nautical Twilight 6:03 AM MDT 7:48 PM MDT
Astronomical Twilight 5:29 AM MDT 8:22 PM MDT
Moon 3:05 PM MDT 12:13 AM MDT
Length of Visible Light 12h 37m
Length of Day
11h 39m
Tomorrow will be 3m 2s shorter.
First Quarter, 61% of the Moon is Illuminated
Today
First Quarter
Oct 8
Full
Oct 15
Last Quarter
Oct 23
New
Oct 30
First Quarter

Today's Extremes

State Highs State Lows

Community

WunderPhotos

Upload Photos

1,758,316 photos uploaded!

WunderBlogs® & News

Nearby

Snow Depth

Station Depth Elevation
Granite Creek 0 in 6770 ft
Two Ocean Plateau 2 in 9240 ft
East Rim Divide 0 in 7930 ft
New Fork Lake 0 in 8340 ft
Snake River Station 0 in 6920 ft

Earthquake Activity

City Distance Mag. Time & Date
No recent earthquake activity has been reported nearby.
Minimum magnitude displayed is 2.5.

Coastal Water Temperatures

Place Temperature
No Stations Reporting

Nearby Weather Stations